Hlavní strana
METAR-TAF:

METAR-TAF

Letiště :

Letiště Teherán-Mehrabád

Teherán, Írán

zeměpisná šířka: 35-41N, zeměpisná délka: 051-21E, výška: 1204 m

Aktuální stav počasí

Zpráva byla vytvořena před 22 minutami, v 10:30 UTC
Jihovýchodní vítr 8 kt
Teplota 39°C
Vlhkost vzduchu 8%
Tlak 1006 hPa
Viditelnost 10 km a více
Žádná oblačnost pod 1500 m, nevyskytují se cumulonimby.

METAR: OIII 221030Z 14008KT CAVOK 39/M01 Q1006 A2972

Čas: 15:22 (10:52 UTC)

Předpověď počasí

Zpráva byla vytvořena před 5 hodinami a 22 minutami, v 05:30 UTC
Předpověď platná od 22 v 06 UTC do 23 v 12 UTC
Východojihovýchodní vítr 6 kt
Viditelnost: 8000 m
Skoro jasno ve výšce 4000 ft
Dočasný
od 22 v 08 UTC do 22 v 16 UTC
Jihovýchodní vítr 16 kt
Dočasný
od 23 v 09 UTC do 23 v 12 UTC
Východojihovýchodní vítr 16 kt s nárazy do 25 kt

TAF: OIII 220530Z 2206/2312 12003MPS 8000 FEW040 TEMPO 2208/2216 14008MPS TEMPO 2309/2312 12008G13MPS

Stav a předpovědi počasí z více než 4 000 letišť (zprávy METAR a TAF).

Červené a žluté tečky na mapě představují dostupné meteorologické stanice.

Když kurzor umístíte na tečku, zobrazí se název stanice.

Pak kliknutím zobrazíte stav a předpověď počasí.

Chcete-li změnit mapu, kliknutím na zelené tlačítko se znaménkem +mapu přiblížíte, kliknutím na zelené tlačítko se znaménkem – mapu oddálíte a kliknutím na zelené šipky přejdete na sousední mapy.


METAR-TAF: